sensor_id;sensor_type;location;lat;lon;timestamp;pressure;altitude;pressure_sealevel;temperature;humidity
64668;BME280;51077;42.716;23.344;2023-02-11T00:01:41;97013.78;;;3.67;35.57
64668;BME280;51077;42.716;23.344;2023-02-11T00:04:06;97022.00;;;3.64;35.64
64668;BME280;51077;42.716;23.344;2023-02-11T00:06:34;97014.28;;;3.62;35.46
64668;BME280;51077;42.716;23.344;2023-02-11T00:08:59;97009.69;;;3.59;35.86
64668;BME280;51077;42.716;23.344;2023-02-11T00:11:27;97015.56;;;3.58;35.49
64668;BME280;51077;42.716;23.344;2023-02-11T00:14:00;97025.31;;;3.55;35.66
64668;BME280;51077;42.716;23.344;2023-02-11T00:16:27;97028.44;;;3.53;35.65
64668;BME280;51077;42.716;23.344;2023-02-11T00:18:52;97030.03;;;3.51;35.60
64668;BME280;51077;42.716;23.344;2023-02-11T00:21:21;97023.09;;;3.50;35.51
64668;BME280;51077;42.716;23.344;2023-02-11T00:23:47;97018.50;;;3.47;35.59
64668;BME280;51077;42.716;23.344;2023-02-11T00:28:38;97010.09;;;3.41;35.58
64668;BME280;51077;42.716;23.344;2023-02-11T00:31:03;97019.44;;;3.40;35.90
64668;BME280;51077;42.716;23.344;2023-02-11T00:33:29;97012.13;;;3.37;35.47
64668;BME280;51077;42.716;23.344;2023-02-11T00:35:54;97017.56;;;3.37;35.90
64668;BME280;51077;42.716;23.344;2023-02-11T00:38:20;97021.09;;;3.34;35.68
64668;BME280;51077;42.716;23.344;2023-02-11T00:40:45;97013.81;;;3.31;35.89
64668;BME280;51077;42.716;23.344;2023-02-11T00:43:11;97010.75;;;3.29;36.03
64668;BME280;51077;42.716;23.344;2023-02-11T00:45:36;97007.34;;;3.25;36.02
64668;BME280;51077;42.716;23.344;2023-02-11T00:48:02;97006.25;;;3.22;35.99
64668;BME280;51077;42.716;23.344;2023-02-11T00:50:27;97001.66;;;3.19;36.21
64668;BME280;51077;42.716;23.344;2023-02-11T00:52:53;97003.63;;;3.19;36.08
64668;BME280;51077;42.716;23.344;2023-02-11T00:55:18;97000.22;;;3.15;36.19
64668;BME280;51077;42.716;23.344;2023-02-11T00:57:44;97008.41;;;3.11;36.26
64668;BME280;51077;42.716;23.344;2023-02-11T01:00:11;97010.00;;;3.09;36.25
64668;BME280;51077;42.716;23.344;2023-02-11T01:02:37;97006.53;;;3.08;36.20
64668;BME280;51077;42.716;23.344;2023-02-11T01:05:03;97001.53;;;3.07;36.29
64668;BME280;51077;42.716;23.344;2023-02-11T01:07:28;97003.13;;;3.04;36.47
64668;BME280;51077;42.716;23.344;2023-02-11T01:09:54;97011.69;;;3.02;36.47
64668;BME280;51077;42.716;23.344;2023-02-11T01:12:19;97005.94;;;3.00;36.34
64668;BME280;51077;42.716;23.344;2023-02-11T01:14:45;97005.56;;;2.98;36.28
64668;BME280;51077;42.716;23.344;2023-02-11T01:17:10;97009.47;;;2.97;36.43
64668;BME280;51077;42.716;23.344;2023-02-11T01:19:37;97009.47;;;2.97;36.30
64668;BME280;51077;42.716;23.344;2023-02-11T01:22:03;97007.59;;;2.94;36.40
64668;BME280;51077;42.716;23.344;2023-02-11T01:24:28;96998.38;;;2.92;36.38
64668;BME280;51077;42.716;23.344;2023-02-11T01:26:54;97004.19;;;2.90;36.65
64668;BME280;51077;42.716;23.344;2023-02-11T01:29:20;97003.50;;;2.86;36.18
64668;BME280;51077;42.716;23.344;2023-02-11T01:31:46;96993.84;;;2.85;36.50
64668;BME280;51077;42.716;23.344;2023-02-11T01:34:11;96990.78;;;2.83;36.65
64668;BME280;51077;42.716;23.344;2023-02-11T01:36:37;96997.44;;;2.78;36.75
64668;BME280;51077;42.716;23.344;2023-02-11T01:39:02;96993.63;;;2.76;36.56
64668;BME280;51077;42.716;23.344;2023-02-11T01:41:28;96991.34;;;2.74;36.69
64668;BME280;51077;42.716;23.344;2023-02-11T01:43:53;96988.69;;;2.71;36.40
64668;BME280;51077;42.716;23.344;2023-02-11T01:49:16;96986.88;;;2.64;36.64
64668;BME280;51077;42.716;23.344;2023-02-11T01:51:48;96986.19;;;2.60;37.03
64668;BME280;51077;42.716;23.344;2023-02-11T01:54:19;96984.72;;;2.56;36.86
64668;BME280;51077;42.716;23.344;2023-02-11T01:57:17;96996.06;;;2.50;36.73
64668;BME280;51077;42.716;23.344;2023-02-11T02:00:15;96982.56;;;2.47;36.69
64668;BME280;51077;42.716;23.344;2023-02-11T02:03:01;96994.25;;;2.44;36.93
64668;BME280;51077;42.716;23.344;2023-02-11T02:05:38;96988.13;;;2.40;36.87
64668;BME280;51077;42.716;23.344;2023-02-11T02:10:36;96998.28;;;2.36;36.68
64668;BME280;51077;42.716;23.344;2023-02-11T02:13:05;96992.50;;;2.34;36.94
64668;BME280;51077;42.716;23.344;2023-02-11T02:15:37;96990.19;;;2.32;37.16
64668;BME280;51077;42.716;23.344;2023-02-11T02:24:00;96990.75;;;2.23;36.79
64668;BME280;51077;42.716;23.344;2023-02-11T02:37:55;96985.63;;;2.06;37.32
64668;BME280;51077;42.716;23.344;2023-02-11T02:40:49;96984.09;;;2.05;37.11
64668;BME280;51077;42.716;23.344;2023-02-11T02:43:17;96979.53;;;2.01;37.14
64668;BME280;51077;42.716;23.344;2023-02-11T02:45:42;96987.28;;;1.99;37.42
64668;BME280;51077;42.716;23.344;2023-02-11T02:51:16;96981.16;;;1.95;37.71
64668;BME280;51077;42.716;23.344;2023-02-11T02:59:09;97001.75;;;1.89;37.68
64668;BME280;51077;42.716;23.344;2023-02-11T03:04:34;96993.75;;;1.82;37.55
64668;BME280;51077;42.716;23.344;2023-02-11T03:07:19;96987.63;;;1.78;37.44
64668;BME280;51077;42.716;23.344;2023-02-11T03:10:10;96993.13;;;1.74;37.37
64668;BME280;51077;42.716;23.344;2023-02-11T03:12:39;96993.56;;;1.69;37.26
64668;BME280;51077;42.716;23.344;2023-02-11T03:15:07;96995.16;;;1.67;37.45
64668;BME280;51077;42.716;23.344;2023-02-11T03:17:34;96992.09;;;1.65;37.16
64668;BME280;51077;42.716;23.344;2023-02-11T03:20:02;96980.16;;;1.62;37.56
64668;BME280;51077;42.716;23.344;2023-02-11T03:22:36;96989.84;;;1.60;37.31
64668;BME280;51077;42.716;23.344;2023-02-11T03:25:03;96988.75;;;1.57;37.47
64668;BME280;51077;42.716;23.344;2023-02-11T03:27:38;96988.03;;;1.53;37.54
64668;BME280;51077;42.716;23.344;2023-02-11T03:33:34;96985.00;;;1.47;37.69
64668;BME280;51077;42.716;23.344;2023-02-11T03:36:08;96991.19;;;1.48;37.50
64668;BME280;51077;42.716;23.344;2023-02-11T03:38:40;96985.06;;;1.44;37.46
64668;BME280;51077;42.716;23.344;2023-02-11T03:41:10;96978.53;;;1.41;37.73
64668;BME280;51077;42.716;23.344;2023-02-11T03:43:41;96978.97;;;1.40;37.42
64668;BME280;51077;42.716;23.344;2023-02-11T03:46:09;96975.53;;;1.36;37.52
64668;BME280;51077;42.716;23.344;2023-02-11T03:48:43;96980.19;;;1.35;37.62
64668;BME280;51077;42.716;23.344;2023-02-11T03:51:11;96978.28;;;1.32;37.66
64668;BME280;51077;42.716;23.344;2023-02-11T03:53:39;96980.22;;;1.32;37.61
64668;BME280;51077;42.716;23.344;2023-02-11T03:56:08;96981.41;;;1.31;37.45
64668;BME280;51077;42.716;23.344;2023-02-11T03:58:35;96983.75;;;1.29;37.61
64668;BME280;51077;42.716;23.344;2023-02-11T04:01:01;96979.50;;;1.28;37.61
64668;BME280;51077;42.716;23.344;2023-02-11T04:03:27;96988.81;;;1.27;37.59
64668;BME280;51077;42.716;23.344;2023-02-11T04:05:52;96986.50;;;1.25;37.60
64668;BME280;51077;42.716;23.344;2023-02-11T04:08:18;96989.19;;;1.25;37.93
64668;BME280;51077;42.716;23.344;2023-02-11T04:10:44;96986.53;;;1.21;37.93
64668;BME280;51077;42.716;23.344;2023-02-11T04:13:09;96986.19;;;1.19;37.87
64668;BME280;51077;42.716;23.344;2023-02-11T04:15:35;96986.59;;;1.18;37.77
64668;BME280;51077;42.716;23.344;2023-02-11T04:18:00;96980.06;;;1.15;37.85
64668;BME280;51077;42.716;23.344;2023-02-11T04:20:27;96978.53;;;1.14;37.62
64668;BME280;51077;42.716;23.344;2023-02-11T04:22:53;96982.41;;;1.13;37.93
64668;BME280;51077;42.716;23.344;2023-02-11T04:25:21;96980.09;;;1.12;37.79
64668;BME280;51077;42.716;23.344;2023-02-11T04:27:46;96981.69;;;1.09;37.78
64668;BME280;51077;42.716;23.344;2023-02-11T04:30:12;96975.50;;;1.09;37.72
64668;BME280;51077;42.716;23.344;2023-02-11T04:32:38;96980.56;;;1.07;37.87
64668;BME280;51077;42.716;23.344;2023-02-11T04:35:04;96977.91;;;1.03;37.98
64668;BME280;51077;42.716;23.344;2023-02-11T04:37:30;96972.91;;;1.02;37.73
64668;BME280;51077;42.716;23.344;2023-02-11T04:39:55;96971.78;;;0.99;38.02
64668;BME280;51077;42.716;23.344;2023-02-11T04:42:21;96971.44;;;0.97;37.90
64668;BME280;51077;42.716;23.344;2023-02-11T04:44:46;96971.81;;;0.95;37.74
64668;BME280;51077;42.716;23.344;2023-02-11T04:47:11;96976.88;;;0.93;38.05
64668;BME280;51077;42.716;23.344;2023-02-11T04:49:39;96973.03;;;0.91;37.84
64668;BME280;51077;42.716;23.344;2023-02-11T04:52:04;96970.34;;;0.91;37.80
64668;BME280;51077;42.716;23.344;2023-02-11T04:54:30;96978.84;;;0.89;37.88
64668;BME280;51077;42.716;23.344;2023-02-11T04:56:55;96970.41;;;0.87;37.87
64668;BME280;51077;42.716;23.344;2023-02-11T04:59:21;96963.09;;;0.84;37.72
64668;BME280;51077;42.716;23.344;2023-02-11T05:01:46;96971.59;;;0.83;37.88
64668;BME280;51077;42.716;23.344;2023-02-11T05:04:11;96973.94;;;0.81;37.68
64668;BME280;51077;42.716;23.344;2023-02-11T05:06:38;96970.53;;;0.77;37.85
64668;BME280;51077;42.716;23.344;2023-02-11T05:09:04;96972.09;;;0.74;37.89
64668;BME280;51077;42.716;23.344;2023-02-11T05:11:29;96967.09;;;0.72;38.05
64668;BME280;51077;42.716;23.344;2023-02-11T05:13:55;96965.16;;;0.73;37.74
64668;BME280;51077;42.716;23.344;2023-02-11T05:16:20;96963.28;;;0.70;37.82
64668;BME280;51077;42.716;23.344;2023-02-11T05:18:46;96973.72;;;0.68;37.88
64668;BME280;51077;42.716;23.344;2023-02-11T05:21:14;96972.19;;;0.67;38.03
64668;BME280;51077;42.716;23.344;2023-02-11T05:23:40;96973.38;;;0.66;37.88
64668;BME280;51077;42.716;23.344;2023-02-11T05:26:07;96967.59;;;0.64;37.94
64668;BME280;51077;42.716;23.344;2023-02-11T05:28:32;96960.66;;;0.63;37.87
64668;BME280;51077;42.716;23.344;2023-02-11T05:30:59;96961.06;;;0.61;37.99
64668;BME280;51077;42.716;23.344;2023-02-11T05:33:25;96963.78;;;0.61;37.77
64668;BME280;51077;42.716;23.344;2023-02-11T05:35:50;96960.28;;;0.61;37.71
64668;BME280;51077;42.716;23.344;2023-02-11T05:38:16;96964.16;;;0.60;37.80
64668;BME280;51077;42.716;23.344;2023-02-11T05:40:41;96968.00;;;0.62;37.95
64668;BME280;51077;42.716;23.344;2023-02-11T05:43:07;96971.06;;;0.64;37.64
64668;BME280;51077;42.716;23.344;2023-02-11T05:45:32;96964.44;;;0.69;37.90
64668;BME280;51077;42.716;23.344;2023-02-11T05:47:58;96969.38;;;0.74;37.78
64668;BME280;51077;42.716;23.344;2023-02-11T05:50:24;96972.00;;;0.81;37.58
64668;BME280;51077;42.716;23.344;2023-02-11T05:52:49;96973.44;;;0.89;37.32
64668;BME280;51077;42.716;23.344;2023-02-11T05:55:15;96973.72;;;0.98;37.13
64668;BME280;51077;42.716;23.344;2023-02-11T05:57:40;96972.41;;;1.10;37.12
64668;BME280;51077;42.716;23.344;2023-02-11T06:00:06;96970.69;;;1.23;37.18
64668;BME280;51077;42.716;23.344;2023-02-11T06:02:32;96975.88;;;1.38;36.64
64668;BME280;51077;42.716;23.344;2023-02-11T06:04:58;96976.44;;;1.53;36.52
64668;BME280;51077;42.716;23.344;2023-02-11T06:07:23;96983.88;;;1.72;36.33
64668;BME280;51077;42.716;23.344;2023-02-11T06:09:49;96980.53;;;1.88;36.11
64668;BME280;51077;42.716;23.344;2023-02-11T06:12:14;96978.66;;;2.05;35.88
64668;BME280;51077;42.716;23.344;2023-02-11T06:14:39;96980.66;;;2.24;35.93
64668;BME280;51077;42.716;23.344;2023-02-11T06:17:05;96979.53;;;2.45;35.31
64668;BME280;51077;42.716;23.344;2023-02-11T06:19:30;96981.41;;;2.68;35.51
64668;BME280;51077;42.716;23.344;2023-02-11T06:21:56;96987.91;;;2.90;35.04
64668;BME280;51077;42.716;23.344;2023-02-11T06:24:22;96981.22;;;3.15;34.85
64668;BME280;51077;42.716;23.344;2023-02-11T06:26:48;96971.75;;;3.39;34.61
64668;BME280;51077;42.716;23.344;2023-02-11T06:29:13;96982.78;;;3.65;34.16
64668;BME280;51077;42.716;23.344;2023-02-11T06:31:39;96986.81;;;3.93;34.09
64668;BME280;51077;42.716;23.344;2023-02-11T06:34:06;96986.50;;;4.20;33.56
64668;BME280;51077;42.716;23.344;2023-02-11T06:36:31;96990.88;;;4.46;33.41
64668;BME280;51077;42.716;23.344;2023-02-11T06:38:57;96989.31;;;4.74;33.57
64668;BME280;51077;42.716;23.344;2023-02-11T06:41:22;96989.75;;;5.02;32.68
64668;BME280;51077;42.716;23.344;2023-02-11T06:43:48;96995.00;;;5.35;32.25
64668;BME280;51077;42.716;23.344;2023-02-11T06:46:14;96991.41;;;5.76;32.04
64668;BME280;51077;42.716;23.344;2023-02-11T06:48:39;96991.88;;;6.22;30.94
64668;BME280;51077;42.716;23.344;2023-02-11T06:51:08;96997.47;;;6.53;30.82
64668;BME280;51077;42.716;23.344;2023-02-11T06:53:37;97002.69;;;7.04;30.55
64668;BME280;51077;42.716;23.344;2023-02-11T06:56:04;96997.06;;;7.29;29.81
64668;BME280;51077;42.716;23.344;2023-02-11T06:58:30;97001.72;;;7.51;30.10
64668;BME280;51077;42.716;23.344;2023-02-11T07:00:56;96993.44;;;7.73;29.50
64668;BME280;51077;42.716;23.344;2023-02-11T07:03:21;96998.22;;;8.00;29.66
64668;BME280;51077;42.716;23.344;2023-02-11T07:05:47;96995.56;;;8.27;29.24
64668;BME280;51077;42.716;23.344;2023-02-11T07:08:12;96991.66;;;8.56;28.94
64668;BME280;51077;42.716;23.344;2023-02-11T07:10:38;96995.44;;;8.86;28.80
64668;BME280;51077;42.716;23.344;2023-02-11T07:13:03;96993.25;;;9.18;28.26
64668;BME280;51077;42.716;23.344;2023-02-11T07:15:29;96982.53;;;9.47;28.06
64668;BME280;51077;42.716;23.344;2023-02-11T07:17:54;96986.03;;;9.81;27.89
64668;BME280;51077;42.716;23.344;2023-02-11T07:20:20;96982.97;;;10.12;27.62
64668;BME280;51077;42.716;23.344;2023-02-11T07:22:45;96985.69;;;10.45;27.21
64668;BME280;51077;42.716;23.344;2023-02-11T07:25:11;96981.28;;;10.77;27.04
64668;BME280;51077;42.716;23.344;2023-02-11T07:27:36;96983.16;;;11.10;26.76
64668;BME280;51077;42.716;23.344;2023-02-11T07:30:03;96978.66;;;11.42;26.33
64668;BME280;51077;42.716;23.344;2023-02-11T07:32:28;96969.41;;;11.75;26.04
64668;BME280;51077;42.716;23.344;2023-02-11T07:34:53;96969.16;;;12.08;25.65
64668;BME280;51077;42.716;23.344;2023-02-11T07:37:19;96967.03;;;12.38;25.45
64668;BME280;51077;42.716;23.344;2023-02-11T07:39:44;96969.13;;;12.69;25.31
64668;BME280;51077;42.716;23.344;2023-02-11T07:42:10;96966.44;;;13.01;25.03
64668;BME280;51077;42.716;23.344;2023-02-11T07:44:35;96961.00;;;13.32;24.99
64668;BME280;51077;42.716;23.344;2023-02-11T07:47:01;96955.19;;;13.62;24.66
64668;BME280;51077;42.716;23.344;2023-02-11T07:49:27;96952.41;;;13.94;24.49
64668;BME280;51077;42.716;23.344;2023-02-11T07:51:52;96954.31;;;14.25;24.21
64668;BME280;51077;42.716;23.344;2023-02-11T07:54:18;96961.75;;;14.56;23.96
64668;BME280;51077;42.716;23.344;2023-02-11T07:56:43;96963.59;;;14.87;23.75
64668;BME280;51077;42.716;23.344;2023-02-11T07:59:09;96956.34;;;15.18;23.52
64668;BME280;51077;42.716;23.344;2023-02-11T08:01:35;96956.63;;;15.48;23.19
64668;BME280;51077;42.716;23.344;2023-02-11T08:04:02;96958.16;;;15.77;22.92
64668;BME280;51077;42.716;23.344;2023-02-11T08:06:31;96954.31;;;16.08;22.99
64668;BME280;51077;42.716;23.344;2023-02-11T08:08:57;96955.97;;;16.39;22.52
64668;BME280;51077;42.716;23.344;2023-02-11T08:11:27;96949.78;;;16.69;22.34
64668;BME280;51077;42.716;23.344;2023-02-11T08:13:53;96953.16;;;16.97;21.88
64668;BME280;51077;42.716;23.344;2023-02-11T08:16:26;96949.94;;;17.29;21.96
64668;BME280;51077;42.716;23.344;2023-02-11T08:18:52;96941.38;;;17.57;21.63
64668;BME280;51077;42.716;23.344;2023-02-11T08:21:19;96952.50;;;17.87;21.53
64668;BME280;51077;42.716;23.344;2023-02-11T08:23:46;96942.34;;;18.14;21.35
64668;BME280;51077;42.716;23.344;2023-02-11T08:26:14;96941.31;;;18.42;21.00
64668;BME280;51077;42.716;23.344;2023-02-11T08:28:42;96940.97;;;18.70;20.88
64668;BME280;51077;42.716;23.344;2023-02-11T08:31:11;96939.81;;;18.97;20.77
64668;BME280;51077;42.716;23.344;2023-02-11T08:33:37;96947.00;;;19.25;20.69
64668;BME280;51077;42.716;23.344;2023-02-11T08:36:13;96939.50;;;19.52;20.23
64668;BME280;51077;42.716;23.344;2023-02-11T08:38:39;96943.09;;;19.79;20.03
64668;BME280;51077;42.716;23.344;2023-02-11T08:41:05;96944.44;;;20.04;19.88
64668;BME280;51077;42.716;23.344;2023-02-11T08:43:31;96944.44;;;20.31;19.67
64668;BME280;51077;42.716;23.344;2023-02-11T08:45:57;96942.19;;;20.56;19.42
64668;BME280;51077;42.716;23.344;2023-02-11T08:48:23;96941.56;;;20.84;19.10
64668;BME280;51077;42.716;23.344;2023-02-11T08:50:48;96942.22;;;21.11;19.04
64668;BME280;51077;42.716;23.344;2023-02-11T08:53:14;96944.19;;;21.37;18.81
64668;BME280;51077;42.716;23.344;2023-02-11T08:55:39;96939.78;;;21.63;18.52
64668;BME280;51077;42.716;23.344;2023-02-11T08:58:05;96935.31;;;21.88;18.27
64668;BME280;51077;42.716;23.344;2023-02-11T09:00:30;96939.25;;;22.14;18.51
64668;BME280;51077;42.716;23.344;2023-02-11T09:02:56;96935.28;;;22.38;18.12
64668;BME280;51077;42.716;23.344;2023-02-11T09:05:21;96926.59;;;22.56;17.70
64668;BME280;51077;42.716;23.344;2023-02-11T09:07:47;96928.75;;;22.79;17.61
64668;BME280;51077;42.716;23.344;2023-02-11T09:10:13;96928.09;;;23.01;17.57
64668;BME280;51077;42.716;23.344;2023-02-11T09:12:38;96928.91;;;23.25;17.61
64668;BME280;51077;42.716;23.344;2023-02-11T09:15:04;96928.94;;;23.48;17.24
64668;BME280;51077;42.716;23.344;2023-02-11T09:17:29;96925.97;;;23.69;17.19
64668;BME280;51077;42.716;23.344;2023-02-11T09:19:55;96925.59;;;23.95;16.73
64668;BME280;51077;42.716;23.344;2023-02-11T09:22:20;96920.31;;;24.15;17.03
64668;BME280;51077;42.716;23.344;2023-02-11T09:24:46;96919.31;;;24.35;16.81
64668;BME280;51077;42.716;23.344;2023-02-11T09:27:11;96916.84;;;24.54;16.70
64668;BME280;51077;42.716;23.344;2023-02-11T09:29:36;96915.84;;;24.75;16.42
64668;BME280;51077;42.716;23.344;2023-02-11T09:32:02;96920.81;;;24.92;16.16
64668;BME280;51077;42.716;23.344;2023-02-11T09:34:27;96921.09;;;25.11;15.97
64668;BME280;51077;42.716;23.344;2023-02-11T09:36:53;96910.69;;;25.29;16.11
64668;BME280;51077;42.716;23.344;2023-02-11T09:39:18;96903.97;;;25.49;15.79
64668;BME280;51077;42.716;23.344;2023-02-11T09:44:24;96897.13;;;25.85;15.77
64668;BME280;51077;42.716;23.344;2023-02-11T09:49:47;96881.47;;;26.17;15.18
64668;BME280;51077;42.716;23.344;2023-02-11T09:54:54;96883.19;;;26.47;14.64
64668;BME280;51077;42.716;23.344;2023-02-11T09:57:20;96868.53;;;26.66;14.85
64668;BME280;51077;42.716;23.344;2023-02-11T09:59:46;96864.75;;;26.80;14.66
64668;BME280;51077;42.716;23.344;2023-02-11T10:05:29;96853.81;;;27.12;14.61
64668;BME280;51077;42.716;23.344;2023-02-11T10:10:51;96837.91;;;27.43;14.38
64668;BME280;51077;42.716;23.344;2023-02-11T10:21:22;96812.28;;;27.68;13.91
64668;BME280;51077;42.716;23.344;2023-02-11T10:23:56;96804.75;;;27.80;13.82
64668;BME280;51077;42.716;23.344;2023-02-11T10:26:26;96798.38;;;27.80;13.78
64668;BME280;51077;42.716;23.344;2023-02-11T10:28:55;96791.41;;;27.91;13.49
64668;BME280;51077;42.716;23.344;2023-02-11T10:31:28;96780.69;;;27.99;13.38
64668;BME280;51077;42.716;23.344;2023-02-11T10:34:09;96777.59;;;28.04;13.32
64668;BME280;51077;42.716;23.344;2023-02-11T10:36:38;96770.31;;;28.01;13.41
64668;BME280;51077;42.716;23.344;2023-02-11T10:41:43;96756.19;;;28.01;13.09
64668;BME280;51077;42.716;23.344;2023-02-11T10:44:30;96756.19;;;28.01;12.88
64668;BME280;51077;42.716;23.344;2023-02-11T10:46:58;96745.63;;;28.02;12.84
64668;BME280;51077;42.716;23.344;2023-02-11T10:57:39;96722.53;;;28.54;12.46
64668;BME280;51077;42.716;23.344;2023-02-11T11:00:41;96724.41;;;28.71;12.37
64668;BME280;51077;42.716;23.344;2023-02-11T11:03:18;96713.94;;;28.83;12.19
64668;BME280;51077;42.716;23.344;2023-02-11T11:08:16;96709.03;;;29.15;12.18
64668;BME280;51077;42.716;23.344;2023-02-11T11:10:43;96713.69;;;29.32;12.13
64668;BME280;51077;42.716;23.344;2023-02-11T11:13:25;96704.41;;;29.41;12.03
64668;BME280;51077;42.716;23.344;2023-02-11T11:18:32;96707.03;;;29.70;11.80
64668;BME280;51077;42.716;23.344;2023-02-11T11:21:00;96699.94;;;29.80;11.66
64668;BME280;51077;42.716;23.344;2023-02-11T11:23:28;96688.25;;;29.86;11.51
64668;BME280;51077;42.716;23.344;2023-02-11T11:26:14;96691.03;;;29.96;11.50
64668;BME280;51077;42.716;23.344;2023-02-11T11:29:17;96691.19;;;30.10;11.37
64668;BME280;51077;42.716;23.344;2023-02-11T11:34:31;96685.00;;;30.35;11.37
64668;BME280;51077;42.716;23.344;2023-02-11T11:37:00;96681.03;;;30.51;11.14
64668;BME280;51077;42.716;23.344;2023-02-11T11:39:33;96681.69;;;30.62;11.06
64668;BME280;51077;42.716;23.344;2023-02-11T11:42:02;96669.97;;;30.67;11.25
64668;BME280;51077;42.716;23.344;2023-02-11T11:44:32;96669.88;;;30.77;11.15
64668;BME280;51077;42.716;23.344;2023-02-11T11:49:42;96659.66;;;30.84;10.62
64668;BME280;51077;42.716;23.344;2023-02-11T11:54:45;96666.66;;;30.94;10.98
64668;BME280;51077;42.716;23.344;2023-02-11T11:57:17;96651.25;;;30.97;10.74
64668;BME280;51077;42.716;23.344;2023-02-11T11:59:44;96649.28;;;31.00;10.91
64668;BME280;51077;42.716;23.344;2023-02-11T12:05:02;96638.91;;;31.04;10.64
64668;BME280;51077;42.716;23.344;2023-02-11T12:10:30;96627.59;;;30.93;10.50
64668;BME280;51077;42.716;23.344;2023-02-11T12:16:01;96613.31;;;30.79;10.67
64668;BME280;51077;42.716;23.344;2023-02-11T12:21:44;96605.28;;;30.64;10.37
64668;BME280;51077;42.716;23.344;2023-02-11T12:27:17;96599.75;;;30.42;10.69
64668;BME280;51077;42.716;23.344;2023-02-11T12:30:12;96590.88;;;30.24;10.55
64668;BME280;51077;42.716;23.344;2023-02-11T12:35:30;96585.03;;;29.99;10.82
64668;BME280;51077;42.716;23.344;2023-02-11T12:38:21;96584.16;;;29.85;10.54
64668;BME280;51077;42.716;23.344;2023-02-11T12:41:16;96579.19;;;29.62;10.13
64668;BME280;51077;42.716;23.344;2023-02-11T12:44:11;96571.59;;;29.43;10.51
64668;BME280;51077;42.716;23.344;2023-02-11T12:47:11;96574.38;;;29.31;10.64
64668;BME280;51077;42.716;23.344;2023-02-11T12:49:58;96567.59;;;29.24;10.57
64668;BME280;51077;42.716;23.344;2023-02-11T12:55:29;96563.38;;;29.14;10.79
64668;BME280;51077;42.716;23.344;2023-02-11T12:58:01;96554.75;;;29.12;10.84
64668;BME280;51077;42.716;23.344;2023-02-11T13:00:45;96561.00;;;29.10;10.83
64668;BME280;51077;42.716;23.344;2023-02-11T13:03:23;96559.28;;;29.05;10.91
64668;BME280;51077;42.716;23.344;2023-02-11T13:06:33;96558.78;;;28.87;10.80
64668;BME280;51077;42.716;23.344;2023-02-11T13:09:03;96556.22;;;28.70;10.96
64668;BME280;51077;42.716;23.344;2023-02-11T13:11:43;96559.59;;;28.57;11.07
64668;BME280;51077;42.716;23.344;2023-02-11T13:14:33;96552.84;;;28.40;11.04
64668;BME280;51077;42.716;23.344;2023-02-11T13:17:03;96548.81;;;28.34;11.10
64668;BME280;51077;42.716;23.344;2023-02-11T13:19:56;96542.38;;;28.21;11.14
64668;BME280;51077;42.716;23.344;2023-02-11T13:22:37;96538.97;;;28.13;11.12
64668;BME280;51077;42.716;23.344;2023-02-11T13:25:31;96535.31;;;28.01;11.04
64668;BME280;51077;42.716;23.344;2023-02-11T13:30:33;96544.03;;;27.74;10.86
64668;BME280;51077;42.716;23.344;2023-02-11T13:33:03;96534.22;;;27.55;11.19
64668;BME280;51077;42.716;23.344;2023-02-11T13:38:04;96529.84;;;27.14;11.06
64668;BME280;51077;42.716;23.344;2023-02-11T13:40:37;96531.47;;;26.88;11.30
64668;BME280;51077;42.716;23.344;2023-02-11T13:43:05;96522.13;;;26.66;11.25
64668;BME280;51077;42.716;23.344;2023-02-11T13:45:45;96518.69;;;26.48;11.26
64668;BME280;51077;42.716;23.344;2023-02-11T13:48:23;96524.41;;;26.30;11.39
64668;BME280;51077;42.716;23.344;2023-02-11T13:50:53;96515.47;;;26.15;11.53
64668;BME280;51077;42.716;23.344;2023-02-11T13:53:20;96517.03;;;25.98;11.80
64668;BME280;51077;42.716;23.344;2023-02-11T13:55:50;96505.00;;;25.88;11.70
64668;BME280;51077;42.716;23.344;2023-02-11T13:58:17;96503.16;;;25.73;11.61
64668;BME280;51077;42.716;23.344;2023-02-11T14:00:47;96498.34;;;25.56;11.92
64668;BME280;51077;42.716;23.344;2023-02-11T14:06:11;96500.06;;;25.07;11.87
64668;BME280;51077;42.716;23.344;2023-02-11T14:19:43;96497.94;;;23.79;12.47
64668;BME280;51077;42.716;23.344;2023-02-11T14:27:06;96488.88;;;23.30;12.53
64668;BME280;51077;42.716;23.344;2023-02-11T14:35:01;96488.00;;;22.65;13.21
64668;BME280;51077;42.716;23.344;2023-02-11T14:40:32;96493.31;;;22.22;13.32
64668;BME280;51077;42.716;23.344;2023-02-11T14:43:26;96486.22;;;21.98;13.36
64668;BME280;51077;42.716;23.344;2023-02-11T14:45:55;96490.50;;;21.76;13.51
64668;BME280;51077;42.716;23.344;2023-02-11T14:48:27;96487.69;;;21.53;13.79
64668;BME280;51077;42.716;23.344;2023-02-11T14:51:01;96487.59;;;21.23;13.97
64668;BME280;51077;42.716;23.344;2023-02-11T14:53:29;96488.44;;;20.95;14.06
64668;BME280;51077;42.716;23.344;2023-02-11T14:55:56;96481.06;;;20.69;14.03
64668;BME280;51077;42.716;23.344;2023-02-11T14:58:26;96476.84;;;20.47;14.29
64668;BME280;51077;42.716;23.344;2023-02-11T15:08:29;96475.78;;;19.58;14.77
64668;BME280;51077;42.716;23.344;2023-02-11T15:10:56;96471.72;;;19.39;15.03
64668;BME280;51077;42.716;23.344;2023-02-11T15:13:24;96471.69;;;19.18;15.07
64668;BME280;51077;42.716;23.344;2023-02-11T15:16:03;96461.78;;;18.96;15.23
64668;BME280;51077;42.716;23.344;2023-02-11T15:18:39;96462.81;;;18.72;15.24
64668;BME280;51077;42.716;23.344;2023-02-11T15:21:06;96463.22;;;18.49;15.56
64668;BME280;51077;42.716;23.344;2023-02-11T15:23:33;96460.91;;;18.27;15.49
64668;BME280;51077;42.716;23.344;2023-02-11T15:25:59;96455.34;;;18.00;15.58
64668;BME280;51077;42.716;23.344;2023-02-11T15:28:31;96449.44;;;17.77;15.96
64668;BME280;51077;42.716;23.344;2023-02-11T15:31:03;96455.56;;;17.57;16.06
64668;BME280;51077;42.716;23.344;2023-02-11T15:33:30;96456.66;;;17.35;16.18